sensor_id;sensor_type;location;lat;lon;timestamp;temperature;humidity
43089;DHT22;28709;52.030;5.652;2023-04-29T00:00:02;9.90;99.90
43089;DHT22;28709;52.030;5.652;2023-04-29T00:02:29;9.90;99.90
43089;DHT22;28709;52.030;5.652;2023-04-29T00:04:55;9.90;99.90
43089;DHT22;28709;52.030;5.652;2023-04-29T00:07:21;9.90;99.90
43089;DHT22;28709;52.030;5.652;2023-04-29T00:09:46;9.80;99.90
43089;DHT22;28709;52.030;5.652;2023-04-29T00:12:12;9.80;99.90
43089;DHT22;28709;52.030;5.652;2023-04-29T00:14:37;9.80;99.90
43089;DHT22;28709;52.030;5.652;2023-04-29T00:17:03;9.80;99.90
43089;DHT22;28709;52.030;5.652;2023-04-29T00:19:29;9.70;99.90
43089;DHT22;28709;52.030;5.652;2023-04-29T00:21:54;9.70;99.90
43089;DHT22;28709;52.030;5.652;2023-04-29T00:24:20;9.60;99.90
43089;DHT22;28709;52.030;5.652;2023-04-29T00:26:46;9.70;99.90
43089;DHT22;28709;52.030;5.652;2023-04-29T00:29:11;9.60;99.90
43089;DHT22;28709;52.030;5.652;2023-04-29T00:31:37;9.70;99.90
43089;DHT22;28709;52.030;5.652;2023-04-29T00:34:03;9.60;99.90
43089;DHT22;28709;52.030;5.652;2023-04-29T00:36:29;9.70;99.90
43089;DHT22;28709;52.030;5.652;2023-04-29T00:38:56;9.70;99.90
43089;DHT22;28709;52.030;5.652;2023-04-29T00:41:23;9.70;99.90
43089;DHT22;28709;52.030;5.652;2023-04-29T00:43:48;9.70;99.90
43089;DHT22;28709;52.030;5.652;2023-04-29T00:46:14;9.70;99.90
43089;DHT22;28709;52.030;5.652;2023-04-29T00:48:40;9.70;99.90
43089;DHT22;28709;52.030;5.652;2023-04-29T00:51:06;9.70;99.90
43089;DHT22;28709;52.030;5.652;2023-04-29T00:53:33;9.70;99.90
43089;DHT22;28709;52.030;5.652;2023-04-29T00:56:00;9.70;99.90
43089;DHT22;28709;52.030;5.652;2023-04-29T00:58:28;9.70;99.90
43089;DHT22;28709;52.030;5.652;2023-04-29T01:01:04;9.70;99.90
43089;DHT22;28709;52.030;5.652;2023-04-29T01:03:30;9.70;99.90
43089;DHT22;28709;52.030;5.652;2023-04-29T01:11:34;9.70;99.90
43089;DHT22;28709;52.030;5.652;2023-04-29T01:14:04;9.70;99.90
43089;DHT22;28709;52.030;5.652;2023-04-29T01:16:40;9.70;99.90
43089;DHT22;28709;52.030;5.652;2023-04-29T01:19:19;9.70;99.90
43089;DHT22;28709;52.030;5.652;2023-04-29T01:21:49;9.70;99.90
43089;DHT22;28709;52.030;5.652;2023-04-29T01:24:15;9.60;99.90
43089;DHT22;28709;52.030;5.652;2023-04-29T01:26:48;9.60;99.90
43089;DHT22;28709;52.030;5.652;2023-04-29T01:32:12;9.60;99.90
43089;DHT22;28709;52.030;5.652;2023-04-29T01:34:58;9.60;99.90
43089;DHT22;28709;52.030;5.652;2023-04-29T01:37:39;9.70;99.90
43089;DHT22;28709;52.030;5.652;2023-04-29T01:40:27;9.60;99.90
43089;DHT22;28709;52.030;5.652;2023-04-29T01:43:01;9.70;99.90
43089;DHT22;28709;52.030;5.652;2023-04-29T01:45:30;9.60;99.90
43089;DHT22;28709;52.030;5.652;2023-04-29T01:47:58;9.60;99.90
43089;DHT22;28709;52.030;5.652;2023-04-29T01:50:24;9.60;99.90
43089;DHT22;28709;52.030;5.652;2023-04-29T01:52:49;9.60;99.90
43089;DHT22;28709;52.030;5.652;2023-04-29T01:55:15;9.60;99.90
43089;DHT22;28709;52.030;5.652;2023-04-29T01:57:41;9.60;99.90
43089;DHT22;28709;52.030;5.652;2023-04-29T02:00:07;9.60;99.90
43089;DHT22;28709;52.030;5.652;2023-04-29T02:02:33;9.60;99.90
43089;DHT22;28709;52.030;5.652;2023-04-29T02:04:59;9.60;99.90
43089;DHT22;28709;52.030;5.652;2023-04-29T02:07:25;9.50;99.90
43089;DHT22;28709;52.030;5.652;2023-04-29T02:09:50;9.50;99.90
43089;DHT22;28709;52.030;5.652;2023-04-29T02:12:17;9.50;99.90
43089;DHT22;28709;52.030;5.652;2023-04-29T02:14:42;9.50;99.90
43089;DHT22;28709;52.030;5.652;2023-04-29T02:17:08;9.50;99.90
43089;DHT22;28709;52.030;5.652;2023-04-29T02:19:33;9.60;99.90
43089;DHT22;28709;52.030;5.652;2023-04-29T02:21:59;9.60;99.90
43089;DHT22;28709;52.030;5.652;2023-04-29T02:24:25;9.60;99.90
43089;DHT22;28709;52.030;5.652;2023-04-29T02:26:51;9.60;99.90
43089;DHT22;28709;52.030;5.652;2023-04-29T02:29:18;9.60;99.90
43089;DHT22;28709;52.030;5.652;2023-04-29T02:31:44;9.60;99.90
43089;DHT22;28709;52.030;5.652;2023-04-29T02:34:09;9.60;99.90
43089;DHT22;28709;52.030;5.652;2023-04-29T02:36:35;9.60;99.90
43089;DHT22;28709;52.030;5.652;2023-04-29T02:39:01;9.60;99.90
43089;DHT22;28709;52.030;5.652;2023-04-29T02:41:26;9.70;99.90
43089;DHT22;28709;52.030;5.652;2023-04-29T02:43:52;9.70;99.90
43089;DHT22;28709;52.030;5.652;2023-04-29T02:46:18;9.70;99.90
43089;DHT22;28709;52.030;5.652;2023-04-29T02:48:44;9.70;99.90
43089;DHT22;28709;52.030;5.652;2023-04-29T02:51:09;9.70;99.90
43089;DHT22;28709;52.030;5.652;2023-04-29T02:53:35;9.70;99.90
43089;DHT22;28709;52.030;5.652;2023-04-29T02:56:01;9.70;99.90
43089;DHT22;28709;52.030;5.652;2023-04-29T02:58:27;9.70;99.90
43089;DHT22;28709;52.030;5.652;2023-04-29T03:00:52;9.70;99.90
43089;DHT22;28709;52.030;5.652;2023-04-29T03:03:18;9.70;99.90
43089;DHT22;28709;52.030;5.652;2023-04-29T03:05:44;9.70;99.90
43089;DHT22;28709;52.030;5.652;2023-04-29T03:08:10;9.70;99.90
43089;DHT22;28709;52.030;5.652;2023-04-29T03:10:35;9.70;99.90
43089;DHT22;28709;52.030;5.652;2023-04-29T03:13:01;9.70;99.90
43089;DHT22;28709;52.030;5.652;2023-04-29T03:15:27;9.70;99.90
43089;DHT22;28709;52.030;5.652;2023-04-29T03:17:54;9.70;99.90
43089;DHT22;28709;52.030;5.652;2023-04-29T03:20:20;9.70;99.90
43089;DHT22;28709;52.030;5.652;2023-04-29T03:22:45;9.70;99.90
43089;DHT22;28709;52.030;5.652;2023-04-29T03:25:11;9.70;99.90
43089;DHT22;28709;52.030;5.652;2023-04-29T03:27:37;9.70;99.90
43089;DHT22;28709;52.030;5.652;2023-04-29T03:30:04;9.70;99.90
43089;DHT22;28709;52.030;5.652;2023-04-29T03:32:30;9.70;99.90
43089;DHT22;28709;52.030;5.652;2023-04-29T03:34:56;9.70;99.90
43089;DHT22;28709;52.030;5.652;2023-04-29T03:37:22;9.60;99.90
43089;DHT22;28709;52.030;5.652;2023-04-29T03:39:47;9.60;99.90
43089;DHT22;28709;52.030;5.652;2023-04-29T03:42:13;9.60;99.90
43089;DHT22;28709;52.030;5.652;2023-04-29T03:44:38;9.60;99.90
43089;DHT22;28709;52.030;5.652;2023-04-29T03:47:04;9.60;99.90
43089;DHT22;28709;52.030;5.652;2023-04-29T03:49:31;9.60;99.90
43089;DHT22;28709;52.030;5.652;2023-04-29T03:51:56;9.60;99.90
43089;DHT22;28709;52.030;5.652;2023-04-29T03:54:22;9.60;99.90
43089;DHT22;28709;52.030;5.652;2023-04-29T03:56:48;9.60;99.90
43089;DHT22;28709;52.030;5.652;2023-04-29T03:59:13;9.60;99.90
43089;DHT22;28709;52.030;5.652;2023-04-29T04:01:40;9.60;99.90
43089;DHT22;28709;52.030;5.652;2023-04-29T04:04:06;9.60;99.90
43089;DHT22;28709;52.030;5.652;2023-04-29T04:06:31;9.60;99.90
43089;DHT22;28709;52.030;5.652;2023-04-29T04:08:57;9.60;99.90
43089;DHT22;28709;52.030;5.652;2023-04-29T04:11:23;9.50;99.90
43089;DHT22;28709;52.030;5.652;2023-04-29T04:13:48;9.50;99.90
43089;DHT22;28709;52.030;5.652;2023-04-29T04:16:14;9.50;99.90
43089;DHT22;28709;52.030;5.652;2023-04-29T04:18:40;9.50;99.90
43089;DHT22;28709;52.030;5.652;2023-04-29T04:21:10;9.40;99.90
43089;DHT22;28709;52.030;5.652;2023-04-29T04:23:36;9.40;99.90
43089;DHT22;28709;52.030;5.652;2023-04-29T04:26:05;9.40;99.90
43089;DHT22;28709;52.030;5.652;2023-04-29T04:28:30;9.50;99.90
43089;DHT22;28709;52.030;5.652;2023-04-29T04:30:56;9.50;99.90
43089;DHT22;28709;52.030;5.652;2023-04-29T04:33:23;9.50;99.90
43089;DHT22;28709;52.030;5.652;2023-04-29T04:35:49;9.50;99.90
43089;DHT22;28709;52.030;5.652;2023-04-29T04:38:14;9.50;99.90
43089;DHT22;28709;52.030;5.652;2023-04-29T04:40:40;9.50;99.90
43089;DHT22;28709;52.030;5.652;2023-04-29T04:43:06;9.50;99.90
43089;DHT22;28709;52.030;5.652;2023-04-29T04:45:32;9.40;99.90
43089;DHT22;28709;52.030;5.652;2023-04-29T04:47:58;9.40;99.90
43089;DHT22;28709;52.030;5.652;2023-04-29T04:50:26;9.40;99.90
43089;DHT22;28709;52.030;5.652;2023-04-29T04:52:56;9.40;99.90
43089;DHT22;28709;52.030;5.652;2023-04-29T04:55:22;9.40;99.90
43089;DHT22;28709;52.030;5.652;2023-04-29T04:57:48;9.40;99.90
43089;DHT22;28709;52.030;5.652;2023-04-29T05:00:14;9.40;99.90
43089;DHT22;28709;52.030;5.652;2023-04-29T05:02:40;9.40;99.90
43089;DHT22;28709;52.030;5.652;2023-04-29T05:05:06;9.50;99.90
43089;DHT22;28709;52.030;5.652;2023-04-29T05:07:32;9.50;99.90
43089;DHT22;28709;52.030;5.652;2023-04-29T05:10:00;9.50;99.90
43089;DHT22;28709;52.030;5.652;2023-04-29T05:12:27;9.50;99.90
43089;DHT22;28709;52.030;5.652;2023-04-29T05:14:55;9.60;99.90
43089;DHT22;28709;52.030;5.652;2023-04-29T05:17:21;9.60;99.90
43089;DHT22;28709;52.030;5.652;2023-04-29T05:19:46;9.70;99.90
43089;DHT22;28709;52.030;5.652;2023-04-29T05:22:12;9.70;99.90
43089;DHT22;28709;52.030;5.652;2023-04-29T05:24:38;9.80;99.90
43089;DHT22;28709;52.030;5.652;2023-04-29T05:27:03;9.80;99.90
43089;DHT22;28709;52.030;5.652;2023-04-29T05:29:29;9.90;99.90
43089;DHT22;28709;52.030;5.652;2023-04-29T05:31:55;9.90;99.90
43089;DHT22;28709;52.030;5.652;2023-04-29T05:34:21;9.90;99.90
43089;DHT22;28709;52.030;5.652;2023-04-29T05:36:46;9.90;99.90
43089;DHT22;28709;52.030;5.652;2023-04-29T05:39:12;9.90;99.90
43089;DHT22;28709;52.030;5.652;2023-04-29T05:41:38;9.90;99.90
43089;DHT22;28709;52.030;5.652;2023-04-29T05:44:04;9.90;99.90
43089;DHT22;28709;52.030;5.652;2023-04-29T05:46:29;10.00;99.90
43089;DHT22;28709;52.030;5.652;2023-04-29T05:48:55;10.00;99.90
43089;DHT22;28709;52.030;5.652;2023-04-29T05:51:21;10.00;99.90
43089;DHT22;28709;52.030;5.652;2023-04-29T05:53:46;10.10;99.90
43089;DHT22;28709;52.030;5.652;2023-04-29T05:56:12;10.20;99.90
43089;DHT22;28709;52.030;5.652;2023-04-29T05:58:37;10.20;99.90
43089;DHT22;28709;52.030;5.652;2023-04-29T06:01:03;10.20;99.90
43089;DHT22;28709;52.030;5.652;2023-04-29T06:03:29;10.30;99.90
43089;DHT22;28709;52.030;5.652;2023-04-29T06:05:55;10.50;99.90
43089;DHT22;28709;52.030;5.652;2023-04-29T06:08:21;10.60;99.90
43089;DHT22;28709;52.030;5.652;2023-04-29T06:10:47;10.60;99.90
43089;DHT22;28709;52.030;5.652;2023-04-29T06:13:12;10.50;99.90
43089;DHT22;28709;52.030;5.652;2023-04-29T06:15:38;10.50;99.90
43089;DHT22;28709;52.030;5.652;2023-04-29T06:18:04;10.50;99.90
43089;DHT22;28709;52.030;5.652;2023-04-29T06:20:29;10.50;99.90
43089;DHT22;28709;52.030;5.652;2023-04-29T06:22:55;10.50;99.90
43089;DHT22;28709;52.030;5.652;2023-04-29T06:25:20;10.60;99.90
43089;DHT22;28709;52.030;5.652;2023-04-29T06:27:46;10.60;99.90
43089;DHT22;28709;52.030;5.652;2023-04-29T06:30:13;10.60;99.90
43089;DHT22;28709;52.030;5.652;2023-04-29T06:32:39;10.60;99.90
43089;DHT22;28709;52.030;5.652;2023-04-29T06:35:05;10.60;99.90
43089;DHT22;28709;52.030;5.652;2023-04-29T06:37:31;10.50;99.90
43089;DHT22;28709;52.030;5.652;2023-04-29T06:39:57;10.50;99.90
43089;DHT22;28709;52.030;5.652;2023-04-29T06:42:22;10.50;99.90
43089;DHT22;28709;52.030;5.652;2023-04-29T06:44:48;10.60;99.90
43089;DHT22;28709;52.030;5.652;2023-04-29T06:47:14;10.60;99.90
43089;DHT22;28709;52.030;5.652;2023-04-29T06:49:39;10.70;99.90
43089;DHT22;28709;52.030;5.652;2023-04-29T06:52:08;10.70;99.90
43089;DHT22;28709;52.030;5.652;2023-04-29T06:54:33;10.80;99.90
43089;DHT22;28709;52.030;5.652;2023-04-29T06:56:59;10.80;99.90
43089;DHT22;28709;52.030;5.652;2023-04-29T06:59:25;11.00;99.90
43089;DHT22;28709;52.030;5.652;2023-04-29T07:01:50;11.00;99.90
43089;DHT22;28709;52.030;5.652;2023-04-29T07:04:16;11.20;99.90
43089;DHT22;28709;52.030;5.652;2023-04-29T07:06:42;11.30;99.90
43089;DHT22;28709;52.030;5.652;2023-04-29T07:09:11;11.40;99.90
43089;DHT22;28709;52.030;5.652;2023-04-29T07:11:38;11.50;99.90
43089;DHT22;28709;52.030;5.652;2023-04-29T07:14:04;11.50;99.90
43089;DHT22;28709;52.030;5.652;2023-04-29T07:16:30;11.60;99.90
43089;DHT22;28709;52.030;5.652;2023-04-29T07:18:55;11.70;99.90
43089;DHT22;28709;52.030;5.652;2023-04-29T07:21:21;11.70;99.90
43089;DHT22;28709;52.030;5.652;2023-04-29T07:23:47;11.60;99.90
43089;DHT22;28709;52.030;5.652;2023-04-29T07:26:14;11.80;99.90
43089;DHT22;28709;52.030;5.652;2023-04-29T07:28:41;11.90;99.90
43089;DHT22;28709;52.030;5.652;2023-04-29T07:31:07;12.00;99.90
43089;DHT22;28709;52.030;5.652;2023-04-29T07:33:34;12.20;99.90
43089;DHT22;28709;52.030;5.652;2023-04-29T07:36:00;12.30;99.90
43089;DHT22;28709;52.030;5.652;2023-04-29T07:38:25;12.30;99.90
43089;DHT22;28709;52.030;5.652;2023-04-29T07:40:51;12.30;99.90
43089;DHT22;28709;52.030;5.652;2023-04-29T07:43:17;12.50;99.90
43089;DHT22;28709;52.030;5.652;2023-04-29T07:45:42;12.80;99.90
43089;DHT22;28709;52.030;5.652;2023-04-29T07:48:08;12.90;99.90
43089;DHT22;28709;52.030;5.652;2023-04-29T07:50:34;12.90;99.90
43089;DHT22;28709;52.030;5.652;2023-04-29T07:53:01;12.90;99.90
43089;DHT22;28709;52.030;5.652;2023-04-29T07:55:27;12.80;99.90
43089;DHT22;28709;52.030;5.652;2023-04-29T07:57:54;12.70;99.90
43089;DHT22;28709;52.030;5.652;2023-04-29T08:00:21;12.80;99.90
43089;DHT22;28709;52.030;5.652;2023-04-29T08:02:50;12.80;99.90
43089;DHT22;28709;52.030;5.652;2023-04-29T08:05:16;12.90;99.90
43089;DHT22;28709;52.030;5.652;2023-04-29T08:07:42;13.20;99.90
43089;DHT22;28709;52.030;5.652;2023-04-29T08:10:08;13.30;99.90
43089;DHT22;28709;52.030;5.652;2023-04-29T08:12:34;13.40;99.90
43089;DHT22;28709;52.030;5.652;2023-04-29T08:14:59;13.50;99.90
43089;DHT22;28709;52.030;5.652;2023-04-29T08:17:25;13.20;99.90
43089;DHT22;28709;52.030;5.652;2023-04-29T08:19:51;13.00;99.90
43089;DHT22;28709;52.030;5.652;2023-04-29T08:22:16;12.90;99.90
43089;DHT22;28709;52.030;5.652;2023-04-29T08:24:42;12.80;99.90
43089;DHT22;28709;52.030;5.652;2023-04-29T08:27:09;12.80;99.90
43089;DHT22;28709;52.030;5.652;2023-04-29T08:29:35;12.80;99.90
43089;DHT22;28709;52.030;5.652;2023-04-29T08:32:01;12.80;99.90
43089;DHT22;28709;52.030;5.652;2023-04-29T08:34:27;13.00;99.90
43089;DHT22;28709;52.030;5.652;2023-04-29T08:36:53;13.20;99.90
43089;DHT22;28709;52.030;5.652;2023-04-29T08:39:18;13.60;99.90
43089;DHT22;28709;52.030;5.652;2023-04-29T08:41:45;13.90;99.90
43089;DHT22;28709;52.030;5.652;2023-04-29T08:44:16;14.20;99.90
43089;DHT22;28709;52.030;5.652;2023-04-29T08:46:45;14.20;99.90
43089;DHT22;28709;52.030;5.652;2023-04-29T08:49:12;14.20;99.90
43089;DHT22;28709;52.030;5.652;2023-04-29T08:51:38;14.10;99.90
43089;DHT22;28709;52.030;5.652;2023-04-29T08:54:03;13.80;99.90
43089;DHT22;28709;52.030;5.652;2023-04-29T08:56:30;13.60;99.90
43089;DHT22;28709;52.030;5.652;2023-04-29T08:58:56;13.30;99.90
43089;DHT22;28709;52.030;5.652;2023-04-29T09:01:27;13.30;99.90
43089;DHT22;28709;52.030;5.652;2023-04-29T09:06:21;13.20;99.90
43089;DHT22;28709;52.030;5.652;2023-04-29T09:08:47;13.40;99.90
43089;DHT22;28709;52.030;5.652;2023-04-29T09:11:13;13.80;99.90
43089;DHT22;28709;52.030;5.652;2023-04-29T09:13:39;14.50;99.90
43089;DHT22;28709;52.030;5.652;2023-04-29T09:16:10;14.90;99.90
43089;DHT22;28709;52.030;5.652;2023-04-29T09:18:47;15.30;99.90
43089;DHT22;28709;52.030;5.652;2023-04-29T09:21:15;15.80;99.90
43089;DHT22;28709;52.030;5.652;2023-04-29T09:23:40;16.30;99.90
43089;DHT22;28709;52.030;5.652;2023-04-29T09:26:06;16.90;99.90
43089;DHT22;28709;52.030;5.652;2023-04-29T09:28:32;17.30;99.90
43089;DHT22;28709;52.030;5.652;2023-04-29T09:30:58;16.80;99.90
43089;DHT22;28709;52.030;5.652;2023-04-29T09:33:24;16.20;99.90
43089;DHT22;28709;52.030;5.652;2023-04-29T09:35:53;15.90;99.90
43089;DHT22;28709;52.030;5.652;2023-04-29T09:38:18;15.80;99.90
43089;DHT22;28709;52.030;5.652;2023-04-29T09:40:45;15.60;99.90
43089;DHT22;28709;52.030;5.652;2023-04-29T09:43:15;15.30;99.90
43089;DHT22;28709;52.030;5.652;2023-04-29T09:45:44;15.20;99.90
43089;DHT22;28709;52.030;5.652;2023-04-29T09:48:11;15.10;99.90
43089;DHT22;28709;52.030;5.652;2023-04-29T09:50:38;15.00;99.90
43089;DHT22;28709;52.030;5.652;2023-04-29T09:53:05;14.70;99.90
43089;DHT22;28709;52.030;5.652;2023-04-29T09:55:37;14.80;99.90
43089;DHT22;28709;52.030;5.652;2023-04-29T09:58:33;15.00;99.90
43089;DHT22;28709;52.030;5.652;2023-04-29T10:01:03;14.90;99.90
43089;DHT22;28709;52.030;5.652;2023-04-29T10:03:33;14.90;99.90
43089;DHT22;28709;52.030;5.652;2023-04-29T10:06:00;14.70;99.90
43089;DHT22;28709;52.030;5.652;2023-04-29T10:08:28;14.70;99.90
43089;DHT22;28709;52.030;5.652;2023-04-29T10:11:00;14.80;99.90
43089;DHT22;28709;52.030;5.652;2023-04-29T10:13:27;14.90;99.90
43089;DHT22;28709;52.030;5.652;2023-04-29T10:18:52;15.00;99.90
43089;DHT22;28709;52.030;5.652;2023-04-29T10:21:26;15.20;99.90
43089;DHT22;28709;52.030;5.652;2023-04-29T10:23:53;15.40;99.90
43089;DHT22;28709;52.030;5.652;2023-04-29T10:26:19;15.60;99.90
43089;DHT22;28709;52.030;5.652;2023-04-29T10:28:46;16.00;99.90
43089;DHT22;28709;52.030;5.652;2023-04-29T10:31:13;16.60;99.90
43089;DHT22;28709;52.030;5.652;2023-04-29T10:33:42;17.30;99.90
43089;DHT22;28709;52.030;5.652;2023-04-29T10:36:10;17.40;99.90
43089;DHT22;28709;52.030;5.652;2023-04-29T10:38:43;17.80;99.90
43089;DHT22;28709;52.030;5.652;2023-04-29T10:41:16;17.50;99.90
43089;DHT22;28709;52.030;5.652;2023-04-29T10:43:43;17.10;99.90
43089;DHT22;28709;52.030;5.652;2023-04-29T10:48:42;16.10;99.90
43089;DHT22;28709;52.030;5.652;2023-04-29T10:51:08;15.80;99.90
43089;DHT22;28709;52.030;5.652;2023-04-29T10:53:36;15.60;99.90
43089;DHT22;28709;52.030;5.652;2023-04-29T10:56:21;15.50;99.90
43089;DHT22;28709;52.030;5.652;2023-04-29T10:58:46;15.60;99.90
43089;DHT22;28709;52.030;5.652;2023-04-29T11:01:16;15.80;99.90
43089;DHT22;28709;52.030;5.652;2023-04-29T11:03:55;16.00;99.90
43089;DHT22;28709;52.030;5.652;2023-04-29T11:09:23;16.70;99.90
43089;DHT22;28709;52.030;5.652;2023-04-29T11:14:36;17.00;99.90
43089;DHT22;28709;52.030;5.652;2023-04-29T11:17:33;16.80;99.90
43089;DHT22;28709;52.030;5.652;2023-04-29T11:20:01;16.90;99.90
43089;DHT22;28709;52.030;5.652;2023-04-29T11:22:28;17.00;99.90
43089;DHT22;28709;52.030;5.652;2023-04-29T11:27:37;16.50;99.90
43089;DHT22;28709;52.030;5.652;2023-04-29T11:30:05;16.80;99.90
43089;DHT22;28709;52.030;5.652;2023-04-29T11:32:36;17.20;99.90
43089;DHT22;28709;52.030;5.652;2023-04-29T11:37:32;17.40;99.90
43089;DHT22;28709;52.030;5.652;2023-04-29T11:39:59;17.40;99.70
43089;DHT22;28709;52.030;5.652;2023-04-29T11:42:25;17.00;99.00
43089;DHT22;28709;52.030;5.652;2023-04-29T11:44:53;16.60;99.60
43089;DHT22;28709;52.030;5.652;2023-04-29T11:47:19;16.50;99.90
43089;DHT22;28709;52.030;5.652;2023-04-29T11:49:46;16.70;99.90
43089;DHT22;28709;52.030;5.652;2023-04-29T11:52:12;16.60;99.90
43089;DHT22;28709;52.030;5.652;2023-04-29T11:54:39;16.60;99.90
43089;DHT22;28709;52.030;5.652;2023-04-29T11:57:05;16.50;99.90
43089;DHT22;28709;52.030;5.652;2023-04-29T11:59:31;16.40;99.90
43089;DHT22;28709;52.030;5.652;2023-04-29T12:01:58;16.30;99.90
43089;DHT22;28709;52.030;5.652;2023-04-29T12:04:25;16.10;99.90
43089;DHT22;28709;52.030;5.652;2023-04-29T12:06:51;16.50;99.90
43089;DHT22;28709;52.030;5.652;2023-04-29T12:09:17;16.70;99.90
43089;DHT22;28709;52.030;5.652;2023-04-29T12:11:44;17.00;99.50
43089;DHT22;28709;52.030;5.652;2023-04-29T12:14:12;17.20;99.20
43089;DHT22;28709;52.030;5.652;2023-04-29T12:16:38;17.60;99.10
43089;DHT22;28709;52.030;5.652;2023-04-29T12:19:04;18.00;98.70
43089;DHT22;28709;52.030;5.652;2023-04-29T12:21:33;18.20;97.50
43089;DHT22;28709;52.030;5.652;2023-04-29T12:24:00;17.80;97.30
43089;DHT22;28709;52.030;5.652;2023-04-29T12:26:29;17.30;98.10
43089;DHT22;28709;52.030;5.652;2023-04-29T12:28:58;17.30;98.30
43089;DHT22;28709;52.030;5.652;2023-04-29T12:31:31;17.30;98.30
43089;DHT22;28709;52.030;5.652;2023-04-29T12:33:58;17.60;98.50
43089;DHT22;28709;52.030;5.652;2023-04-29T12:36:23;17.90;98.00
43089;DHT22;28709;52.030;5.652;2023-04-29T12:38:49;17.90;97.10
43089;DHT22;28709;52.030;5.652;2023-04-29T12:41:15;17.60;96.90
43089;DHT22;28709;52.030;5.652;2023-04-29T12:43:42;17.30;97.10
43089;DHT22;28709;52.030;5.652;2023-04-29T12:46:09;17.00;97.10
43089;DHT22;28709;52.030;5.652;2023-04-29T12:48:37;17.00;98.20
43089;DHT22;28709;52.030;5.652;2023-04-29T12:51:11;17.40;97.80
43089;DHT22;28709;52.030;5.652;2023-04-29T12:53:37;17.70;96.80
43089;DHT22;28709;52.030;5.652;2023-04-29T12:56:04;18.00;96.90
43089;DHT22;28709;52.030;5.652;2023-04-29T12:58:30;18.80;97.50
43089;DHT22;28709;52.030;5.652;2023-04-29T13:00:57;19.60;95.50
43089;DHT22;28709;52.030;5.652;2023-04-29T13:03:23;19.40;93.10
43089;DHT22;28709;52.030;5.652;2023-04-29T13:05:49;18.90;93.80
43089;DHT22;28709;52.030;5.652;2023-04-29T13:08:18;18.60;93.60
43089;DHT22;28709;52.030;5.652;2023-04-29T13:10:43;18.20;93.90
43089;DHT22;28709;52.030;5.652;2023-04-29T13:13:09;18.00;93.70
43089;DHT22;28709;52.030;5.652;2023-04-29T13:15:35;17.70;93.80
43089;DHT22;28709;52.030;5.652;2023-04-29T13:18:03;17.30;94.10
43089;DHT22;28709;52.030;5.652;2023-04-29T13:20:29;17.30;94.50
43089;DHT22;28709;52.030;5.652;2023-04-29T13:22:55;17.40;93.80
43089;DHT22;28709;52.030;5.652;2023-04-29T13:25:20;17.50;93.60
43089;DHT22;28709;52.030;5.652;2023-04-29T13:27:46;17.60;93.50
43089;DHT22;28709;52.030;5.652;2023-04-29T13:30:12;17.50;93.30
43089;DHT22;28709;52.030;5.652;2023-04-29T13:32:38;17.60;93.70
43089;DHT22;28709;52.030;5.652;2023-04-29T13:35:05;17.80;93.90
43089;DHT22;28709;52.030;5.652;2023-04-29T13:37:31;18.00;94.20
43089;DHT22;28709;52.030;5.652;2023-04-29T13:39:57;18.10;94.40
43089;DHT22;28709;52.030;5.652;2023-04-29T13:42:22;18.30;94.50
43089;DHT22;28709;52.030;5.652;2023-04-29T13:44:48;18.40;93.90
43089;DHT22;28709;52.030;5.652;2023-04-29T13:47:15;18.30;93.80
43089;DHT22;28709;52.030;5.652;2023-04-29T13:49:42;18.20;94.10
43089;DHT22;28709;52.030;5.652;2023-04-29T13:52:11;18.10;94.10
43089;DHT22;28709;52.030;5.652;2023-04-29T13:54:36;18.20;94.30
43089;DHT22;28709;52.030;5.652;2023-04-29T13:57:02;18.40;94.50
43089;DHT22;28709;52.030;5.652;2023-04-29T13:59:33;18.70;94.20
43089;DHT22;28709;52.030;5.652;2023-04-29T14:01:59;18.90;94.10
43089;DHT22;28709;52.030;5.652;2023-04-29T14:04:26;19.00;93.30
43089;DHT22;28709;52.030;5.652;2023-04-29T14:06:52;18.80;93.30
43089;DHT22;28709;52.030;5.652;2023-04-29T14:09:19;18.50;93.40
43089;DHT22;28709;52.030;5.652;2023-04-29T14:11:48;18.20;93.60
43089;DHT22;28709;52.030;5.652;2023-04-29T14:14:15;17.80;93.40
43089;DHT22;28709;52.030;5.652;2023-04-29T14:16:41;17.60;94.00
43089;DHT22;28709;52.030;5.652;2023-04-29T14:19:07;17.50;94.00
43089;DHT22;28709;52.030;5.652;2023-04-29T14:21:33;17.40;94.10
43089;DHT22;28709;52.030;5.652;2023-04-29T14:23:59;17.40;94.20
43089;DHT22;28709;52.030;5.652;2023-04-29T14:26:27;17.30;94.40
43089;DHT22;28709;52.030;5.652;2023-04-29T14:28:53;17.30;94.70
43089;DHT22;28709;52.030;5.652;2023-04-29T14:31:26;17.50;94.90
43089;DHT22;28709;52.030;5.652;2023-04-29T14:33:57;17.70;94.50
43089;DHT22;28709;52.030;5.652;2023-04-29T14:36:24;17.90;94.00
43089;DHT22;28709;52.030;5.652;2023-04-29T14:38:51;18.00;93.80
43089;DHT22;28709;52.030;5.652;2023-04-29T14:41:16;18.10;94.10
43089;DHT22;28709;52.030;5.652;2023-04-29T14:43:42;18.30;94.50
43089;DHT22;28709;52.030;5.652;2023-04-29T14:46:09;18.20;94.70
43089;DHT22;28709;52.030;5.652;2023-04-29T14:48:35;18.20;94.90
43089;DHT22;28709;52.030;5.652;2023-04-29T14:51:01;18.10;94.80
43089;DHT22;28709;52.030;5.652;2023-04-29T14:53:26;18.00;95.20
43089;DHT22;28709;52.030;5.652;2023-04-29T14:55:52;17.90;94.60
43089;DHT22;28709;52.030;5.652;2023-04-29T14:58:17;17.80;94.60
43089;DHT22;28709;52.030;5.652;2023-04-29T15:00:43;17.50;94.70
43089;DHT22;28709;52.030;5.652;2023-04-29T15:03:09;17.20;95.20
43089;DHT22;28709;52.030;5.652;2023-04-29T15:05:35;16.90;95.80
43089;DHT22;28709;52.030;5.652;2023-04-29T15:08:00;16.90;96.30
43089;DHT22;28709;52.030;5.652;2023-04-29T15:10:29;17.00;96.30
43089;DHT22;28709;52.030;5.652;2023-04-29T15:12:55;17.20;96.00
43089;DHT22;28709;52.030;5.652;2023-04-29T15:15:23;17.30;95.80
43089;DHT22;28709;52.030;5.652;2023-04-29T15:17:49;17.40;95.90
43089;DHT22;28709;52.030;5.652;2023-04-29T15:20:15;17.30;95.40
43089;DHT22;28709;52.030;5.652;2023-04-29T15:22:41;17.20;95.80
43089;DHT22;28709;52.030;5.652;2023-04-29T15:25:07;17.00;95.80
43089;DHT22;28709;52.030;5.652;2023-04-29T15:27:34;17.00;96.10
43089;DHT22;28709;52.030;5.652;2023-04-29T15:30:00;17.00;95.90
43089;DHT22;28709;52.030;5.652;2023-04-29T15:32:26;16.90;96.20
43089;DHT22;28709;52.030;5.652;2023-04-29T15:35:01;17.00;96.10
43089;DHT22;28709;52.030;5.652;2023-04-29T15:37:28;16.90;96.00
43089;DHT22;28709;52.030;5.652;2023-04-29T15:39:55;16.80;95.50
43089;DHT22;28709;52.030;5.652;2023-04-29T15:42:23;16.60;95.90
43089;DHT22;28709;52.030;5.652;2023-04-29T15:44:48;16.40;95.90
43089;DHT22;28709;52.030;5.652;2023-04-29T15:47:14;16.40;96.40
43089;DHT22;28709;52.030;5.652;2023-04-29T15:49:41;16.40;96.50
43089;DHT22;28709;52.030;5.652;2023-04-29T15:52:07;16.30;96.40
43089;DHT22;28709;52.030;5.652;2023-04-29T15:54:33;16.20;96.50
43089;DHT22;28709;52.030;5.652;2023-04-29T15:56:58;16.10;96.60
43089;DHT22;28709;52.030;5.652;2023-04-29T15:59:25;16.10;96.80
43089;DHT22;28709;52.030;5.652;2023-04-29T16:01:51;16.00;96.70